Time;durP1;ratioP1;P1;durP2;ratioP2;P2;SDS_P1;SDS_P2;PMS_P1;PMS_P2;Temp;Humidity;BMP_temperature;BMP_pressure;BME280_temperature;BME280_humidity;BME280_pressure;Samples;Min_cycle;Max_cycle;Signal;HPM_P1;HPM_P2
2023/04/10 00:02:19;;;;;;;7.05;2.00;;;;;;;10.60;87.66;101812.50;5101806;28;20094;-50
2023/04/10 00:04:44;;;;;;;5.15;2.17;;;;;;;10.58;87.14;101809.34;5090455;28;20104;-54
2023/04/10 00:07:11;;;;;;;2.47;2.15;;;;;;;10.63;86.63;101815.31;5104617;28;20067;-46
2023/04/10 00:09:37;;;;;;;3.95;2.13;;;;;;;10.43;87.20;101820.66;5107936;28;20956;-44
2023/04/10 00:12:03;;;;;;;4.20;2.30;;;;;;;10.46;87.74;101811.94;5105852;28;20490;-45
2023/04/10 00:14:28;;;;;;;8.13;1.48;;;;;;;10.34;88.59;101809.94;5104346;28;20088;-45
2023/04/10 00:16:54;;;;;;;8.85;2.35;;;;;;;10.47;87.70;101808.13;5090388;28;20046;-45
2023/04/10 00:19:19;;;;;;;8.82;3.13;;;;;;;10.39;87.74;101799.00;5108877;28;20092;-51
2023/04/10 00:21:45;;;;;;;10.00;2.22;;;;;;;10.34;88.11;101792.97;5109411;28;20040;-46
2023/04/10 00:24:10;;;;;;;2.88;1.88;;;;;;;10.41;87.83;101796.75;5104820;28;20040;-46
2023/04/10 00:26:36;;;;;;;4.28;2.50;;;;;;;10.49;87.51;101784.38;5108925;28;20419;-47
2023/04/10 00:29:02;;;;;;;1.45;1.27;;;;;;;10.43;87.98;101780.28;5109108;28;20032;-54
2023/04/10 00:31:28;;;;;;;8.10;2.83;;;;;;;10.41;87.81;101783.31;5105889;28;20050;-53
2023/04/10 00:33:54;;;;;;;6.63;3.17;;;;;;;10.48;86.87;101769.31;5103472;28;20363;-46
2023/04/10 00:36:20;;;;;;;3.95;1.52;;;;;;;10.39;87.71;101774.75;5109243;28;20032;-46
2023/04/10 00:38:46;;;;;;;5.60;2.65;;;;;;;10.30;87.99;101776.69;5089509;28;20066;-54
2023/04/10 00:41:12;;;;;;;3.13;2.05;;;;;;;10.09;89.25;101778.50;5088792;28;20036;-51
2023/04/10 00:43:37;;;;;;;3.05;1.95;;;;;;;10.03;88.97;101769.81;5102538;28;20118;-55
2023/04/10 00:46:04;;;;;;;5.65;1.95;;;;;;;10.10;89.43;101765.88;5106283;28;20168;-47
2023/04/10 00:48:30;;;;;;;1.98;1.48;;;;;;;10.04;90.20;101763.31;5090696;28;20394;-45
2023/04/10 00:50:56;;;;;;;6.53;2.47;;;;;;;10.01;89.73;101763.19;5113123;28;20032;-45
2023/04/10 00:53:22;;;;;;;5.32;1.80;;;;;;;10.07;89.93;101769.16;5113406;28;20022;-48
2023/04/10 00:55:49;;;;;;;5.45;2.95;;;;;;;10.18;89.38;101763.13;5108104;28;20024;-47
2023/04/10 00:58:14;;;;;;;4.95;2.03;;;;;;;10.23;89.10;101770.22;5106612;28;20504;-47
2023/04/10 01:00:40;;;;;;;2.15;1.40;;;;;;;10.17;89.09;101766.94;5106688;28;20027;-50
2023/04/10 01:03:08;;;;;;;5.55;2.38;;;;;;;10.25;89.44;101776.09;5111326;28;20032;-46
2023/04/10 01:05:46;;;;;;;2.75;2.08;;;;;;;10.26;89.15;101772.28;5109455;28;20035;-51
2023/04/10 01:08:30;;;;;;;4.13;1.58;;;;;;;10.29;88.98;101767.03;5112907;28;20027;-47
2023/04/10 01:11:31;;;;;;;2.80;1.40;;;;;;;10.19;88.67;101772.00;5093389;28;20047;-51
2023/04/10 01:14:00;;;;;;;9.20;2.47;;;;;;;10.21;88.75;101767.88;5079623;28;20039;-48
2023/04/10 01:16:39;;;;;;;9.52;2.67;;;;;;;9.85;90.57;101770.22;5111067;28;20035;-53
2023/04/10 01:19:30;;;;;;;4.97;2.28;;;;;;;10.09;90.18;101770.44;5111462;28;20398;-44
2023/04/10 01:21:56;;;;;;;2.33;1.17;;;;;;;10.14;89.55;101772.97;5109464;28;20023;-44
2023/04/10 01:24:46;;;;;;;6.20;3.25;;;;;;;10.15;89.40;101776.44;5112199;28;20384;-48
2023/04/10 01:27:43;;;;;;;1.55;1.33;;;;;;;10.11;88.62;101773.63;5112549;28;20097;-54
2023/04/10 01:30:13;;;;;;;4.93;2.38;;;;;;;10.07;89.06;101767.25;5098706;28;20036;-47
2023/04/10 01:32:40;;;;;;;2.43;1.97;;;;;;;9.85;90.23;101764.84;5093862;28;20398;-45
2023/04/10 01:35:07;;;;;;;5.15;1.48;;;;;;;9.96;90.57;101760.69;5094116;28;20367;-44
2023/04/10 01:37:37;;;;;;;3.17;2.15;;;;;;;10.05;90.18;101761.41;5087388;28;20158;-55
2023/04/10 01:40:07;;;;;;;5.72;1.95;;;;;;;10.07;88.88;101761.09;5111109;28;20429;-46
2023/04/10 01:42:39;;;;;;;4.45;2.35;;;;;;;10.05;89.43;101756.03;5076676;28;20038;-55
2023/04/10 01:45:11;;;;;;;6.22;2.40;;;;;;;10.03;89.18;101763.63;5093683;28;20135;-46
2023/04/10 01:47:36;;;;;;;4.38;2.10;;;;;;;9.96;89.33;101755.28;5088093;28;20410;-45
2023/04/10 01:50:05;;;;;;;4.10;1.70;;;;;;;9.88;89.65;101756.13;5075773;28;20024;-53
2023/04/10 01:52:32;;;;;;;4.38;1.58;;;;;;;9.88;89.73;101748.03;5093587;28;20043;-47
2023/04/10 01:55:06;;;;;;;5.18;2.88;;;;;;;9.75;90.01;101754.44;5093408;28;20031;-48
2023/04/10 01:57:40;;;;;;;8.93;2.95;;;;;;;9.79;90.03;101748.06;5089829;28;20028;-45
2023/04/10 02:00:07;;;;;;;1.65;1.52;;;;;;;9.81;90.14;101739.69;5092316;28;20375;-45
2023/04/10 02:02:41;;;;;;;3.72;2.10;;;;;;;9.83;89.86;101734.78;5103475;28;20062;-46
2023/04/10 02:05:09;;;;;;;4.78;2.08;;;;;;;9.88;89.57;101739.97;5100345;28;20079;-45
2023/04/10 02:07:50;;;;;;;2.67;2.20;;;;;;;9.84;88.90;101730.97;5109094;28;20027;-46
2023/04/10 02:10:34;;;;;;;2.92;2.15;;;;;;;9.75;90.30;101732.91;5092858;28;20038;-49
2023/04/10 02:13:05;;;;;;;4.43;2.35;;;;;;;9.66;90.18;101724.84;5109447;28;20152;-52
2023/04/10 02:15:33;;;;;;;3.85;1.98;;;;;;;9.50;90.64;101717.66;5091810;28;20091;-45
2023/04/10 02:18:03;;;;;;;3.92;2.15;;;;;;;9.39;91.47;101719.88;5092311;28;20035;-45
2023/04/10 02:20:30;;;;;;;3.03;1.85;;;;;;;9.60;91.34;101720.00;5087881;28;20040;-48
2023/04/10 02:22:59;;;;;;;4.72;2.33;;;;;;;9.65;90.98;101717.91;5092182;28;20107;-45
2023/04/10 02:25:25;;;;;;;7.47;4.35;;;;;;;9.67;90.79;101706.81;5104511;28;20367;-47
2023/04/10 02:27:50;;;;;;;5.20;2.25;;;;;;;9.63;90.78;101697.81;5108226;28;20038;-55
2023/04/10 02:30:16;;;;;;;11.52;2.55;;;;;;;9.49;91.70;101702.59;5086701;28;20047;-46
2023/04/10 02:32:42;;;;;;;9.68;3.22;;;;;;;9.55;91.67;101696.75;5064194;28;20493;-49
2023/04/10 02:35:08;;;;;;;7.10;1.92;;;;;;;9.59;91.57;101702.25;5087846;28;20028;-53
2023/04/10 02:37:35;;;;;;;7.15;2.22;;;;;;;9.62;91.61;101697.03;5097120;28;20116;-51
2023/04/10 02:40:02;;;;;;;4.70;1.98;;;;;;;9.67;90.87;101704.94;5103480;28;20024;-49
2023/04/10 02:42:36;;;;;;;8.20;2.90;;;;;;;9.72;90.51;101704.75;5088721;28;20028;-47
2023/04/10 02:45:02;;;;;;;7.43;2.92;;;;;;;9.51;91.40;101695.00;5090360;28;20032;-46
2023/04/10 02:47:34;;;;;;;4.18;2.30;;;;;;;9.58;90.62;101693.41;5090331;28;20198;-53
2023/04/10 02:49:59;;;;;;;3.22;2.38;;;;;;;9.53;91.01;101698.16;5087561;28;20130;-52
2023/04/10 02:52:32;;;;;;;5.35;2.40;;;;;;;9.56;90.89;101697.53;5089267;28;20028;-50
2023/04/10 02:54:57;;;;;;;5.15;2.67;;;;;;;9.59;90.59;101703.06;5091962;28;20028;-52
2023/04/10 02:57:26;;;;;;;7.40;2.35;;;;;;;9.59;90.88;101702.25;5090494;28;20032;-53
2023/04/10 02:59:52;;;;;;;4.43;1.85;;;;;;;9.46;91.31;101697.88;5087225;28;20032;-52
2023/04/10 03:02:19;;;;;;;4.20;2.10;;;;;;;9.55;91.04;101694.06;5091739;28;20073;-53
2023/04/10 03:04:45;;;;;;;5.15;2.60;;;;;;;9.61;90.48;101690.09;5091850;28;20039;-46
2023/04/10 03:07:11;;;;;;;6.75;2.10;;;;;;;9.66;90.11;101686.41;5091927;28;20027;-51
2023/04/10 03:09:37;;;;;;;5.80;2.40;;;;;;;9.62;90.21;101691.66;5087709;28;20126;-53
2023/04/10 03:12:03;;;;;;;3.78;1.75;;;;;;;9.65;89.70;101685.63;5089469;28;20112;-46
2023/04/10 03:14:28;;;;;;;8.18;2.10;;;;;;;9.66;89.48;101670.28;5109293;28;20047;-49
2023/04/10 03:16:54;;;;;;;3.10;1.98;;;;;;;9.63;89.97;101673.63;5091301;28;20027;-48
2023/04/10 03:19:19;;;;;;;3.15;1.65;;;;;;;9.54;89.22;101664.81;5087793;28;20569;-46
2023/04/10 03:21:45;;;;;;;3.80;1.67;;;;;;;9.53;89.77;101665.91;5092662;28;20073;-47
2023/04/10 03:24:11;;;;;;;3.10;1.35;;;;;;;9.49;89.73;101665.75;5110550;28;20028;-48
2023/04/10 03:26:37;;;;;;;3.85;2.08;;;;;;;9.51;89.57;101660.84;5077126;28;20054;-50
2023/04/10 03:29:02;;;;;;;4.38;1.75;;;;;;;9.47;89.73;101659.13;5078690;28;20032;-51
2023/04/10 03:31:28;;;;;;;8.55;3.00;;;;;;;9.38;89.38;101659.16;5088950;28;20070;-51
2023/04/10 03:33:56;;;;;;;6.68;2.05;;;;;;;9.33;90.05;101656.63;5091394;28;20022;-51
2023/04/10 03:36:42;;;;;;;5.25;2.17;;;;;;;9.40;89.80;101659.63;5065462;28;20040;-50
2023/04/10 03:39:08;;;;;;;3.42;1.45;;;;;;;9.47;89.46;101659.13;5057979;28;20766;-51
2023/04/10 03:41:33;;;;;;;4.85;2.30;;;;;;;9.43;89.45;101658.97;5056634;28;20123;-52
2023/04/10 03:44:02;;;;;;;4.68;1.52;;;;;;;9.48;88.84;101653.44;5050405;28;20044;-53
2023/04/10 03:46:27;;;;;;;4.00;1.85;;;;;;;9.45;89.01;101645.22;5075969;22;20055;-63
2023/04/10 03:48:53;;;;;;;4.88;1.63;;;;;;;9.17;89.80;101639.47;5075163;28;20573;-64
2023/04/10 03:51:19;;;;;;;2.58;1.83;;;;;;;9.12;90.11;101633.50;5069200;28;20020;-63
2023/04/10 03:53:45;;;;;;;4.55;2.58;;;;;;;9.23;90.07;101637.41;5090867;28;20020;-63
2023/04/10 03:56:14;;;;;;;2.42;1.52;;;;;;;9.20;90.52;101640.72;5088686;28;20035;-63
2023/04/10 03:58:39;;;;;;;4.22;1.88;;;;;;;9.06;90.72;101630.16;5069186;28;20392;-64
2023/04/10 04:01:06;;;;;;;4.30;2.28;;;;;;;9.09;91.01;101635.72;5071092;28;20024;-64
2023/04/10 04:03:40;;;;;;;3.38;2.05;;;;;;;9.18;90.50;101632.19;5087447;28;20081;-63
2023/04/10 04:06:26;;;;;;;4.80;1.80;;;;;;;9.20;89.88;101630.75;5085587;28;20040;-67
2023/04/10 04:09:05;;;;;;;5.78;2.60;;;;;;;9.07;90.22;101635.22;5088314;28;20036;-63
2023/04/10 04:11:46;;;;;;;3.10;1.63;;;;;;;9.00;90.18;101639.53;5086383;28;20032;-63
2023/04/10 04:14:34;;;;;;;3.28;2.13;;;;;;;9.02;90.18;101638.06;5071685;28;20032;-64
2023/04/10 04:17:25;;;;;;;3.53;1.48;;;;;;;8.98;90.39;101631.00;5081447;28;20028;-64
2023/04/10 04:20:13;;;;;;;5.45;2.63;;;;;;;8.98;89.91;101639.06;5085765;28;20044;-64
2023/04/10 04:22:45;;;;;;;;;;;;;;;9.03;89.82;101630.81;5087318;28;20044;-64
2023/04/10 04:25:30;;;;;;;3.40;1.52;;;;;;;8.94;90.01;101633.50;5092012;28;20006;-63
2023/04/10 04:27:58;;;;;;;10.88;2.90;;;;;;;8.95;89.92;101629.72;5092210;28;20365;-63
2023/04/10 04:30:32;;;;;;;2.67;1.60;;;;;;;8.97;90.01;101635.56;5094055;28;20102;-63
2023/04/10 04:33:20;;;;;;;3.55;1.90;;;;;;;9.06;89.30;101632.84;5092458;28;20028;-63
2023/04/10 04:36:06;;;;;;;4.63;2.67;;;;;;;9.02;89.59;101634.59;5091389;28;20097;-63
2023/04/10 04:38:41;;;;;;;4.30;1.70;;;;;;;9.02;89.38;101640.75;5092135;28;20032;-63
2023/04/10 04:41:12;;;;;;;5.53;2.55;;;;;;;8.99;89.64;101641.41;5092137;28;20035;-63
2023/04/10 04:44:03;;;;;;;3.33;2.13;;;;;;;8.97;89.53;101643.63;5090617;28;20036;-64
2023/04/10 04:46:55;;;;;;;11.07;2.05;;;;;;;8.94;89.51;101638.88;5059287;28;20101;-64
2023/04/10 04:49:26;;;;;;;6.15;2.55;;;;;;;9.04;89.15;101633.16;5089828;28;20071;-64
2023/04/10 04:52:12;;;;;;;7.40;2.92;;;;;;;9.04;88.89;101633.16;5084437;28;20143;-66
2023/04/10 04:54:44;;;;;;;6.20;2.22;;;;;;;8.95;89.18;101634.31;5092669;28;20044;-64
2023/04/10 04:57:41;;;;;;;3.47;1.95;;;;;;;8.87;89.60;101635.91;5075775;28;20070;-64
2023/04/10 05:00:26;;;;;;;7.18;1.95;;;;;;;8.88;89.83;101640.16;5088535;28;20047;-64
2023/04/10 05:03:02;;;;;;;7.28;2.60;;;;;;;8.88;89.61;101629.41;5089748;28;20020;-65
2023/04/10 05:05:34;;;;;;;4.60;2.28;;;;;;;8.65;90.66;101641.44;5091651;28;20043;-63
2023/04/10 05:08:18;;;;;;;3.08;2.20;;;;;;;8.65;91.12;101629.94;5091957;28;20143;-65
2023/04/10 05:11:06;;;;;;;3.60;1.73;;;;;;;8.80;91.02;101645.53;5072237;28;20040;-65
2023/04/10 05:13:50;;;;;;;3.33;2.30;;;;;;;8.81;90.86;101642.53;5087933;28;20050;-64
2023/04/10 05:16:43;;;;;;;7.47;2.30;;;;;;;8.96;90.39;101643.94;5089650;28;20105;-64
2023/04/10 05:19:43;;;;;;;5.33;1.90;;;;;;;8.91;90.53;101646.78;5069148;28;20037;-63
2023/04/10 05:22:27;;;;;;;5.53;2.60;;;;;;;8.81;90.77;101645.22;5092129;28;20325;-64
2023/04/10 05:25:28;;;;;;;9.13;2.25;;;;;;;8.79;90.41;101642.06;5089894;28;20028;-64
2023/04/10 05:28:05;;;;;;;4.55;2.20;;;;;;;8.79;90.88;101634.00;5089650;28;20123;-64
2023/04/10 05:30:49;;;;;;;4.72;1.83;;;;;;;8.84;90.89;101641.91;5087488;28;20070;-63
2023/04/10 05:33:40;;;;;;;;;;;;;;;9.00;90.30;101634.91;5091383;28;20040;-64
2023/04/10 05:36:23;;;;;;;4.65;1.75;;;;;;;9.16;89.84;101640.56;5087583;28;19916;-63
2023/04/10 05:39:05;;;;;;;5.38;1.80;;;;;;;9.16;90.05;101629.03;5082085;28;20035;-64
2023/04/10 05:41:55;;;;;;;4.50;1.85;;;;;;;9.27;89.67;101635.66;5086211;28;20499;-64
2023/04/10 05:44:29;;;;;;;7.20;2.45;;;;;;;9.34;88.68;101635.94;5089852;28;20047;-66
2023/04/10 05:47:00;;;;;;;10.25;2.03;;;;;;;9.35;89.66;101632.16;5089984;28;20454;-65
2023/04/10 05:49:52;;;;;;;;;;;;;;;9.43;89.24;101634.00;5085474;28;20113;-63
2023/04/10 05:52:40;;;;;;;6.50;2.03;;;;;;;9.62;88.11;101626.34;5070942;28;19915;-64
2023/04/10 05:55:32;;;;;;;6.95;1.60;;;;;;;9.58;89.04;101620.78;5086597;28;20403;-63
2023/04/10 05:58:18;;;;;;;6.38;2.28;;;;;;;9.82;87.29;101625.59;5067040;28;20073;-66
2023/04/10 06:01:01;;;;;;;5.35;2.17;;;;;;;10.00;86.83;101621.69;5089574;28;20024;-65
2023/04/10 06:03:47;;;;;;;4.22;1.90;;;;;;;9.90;86.69;101627.44;5090778;28;20028;-64
2023/04/10 06:06:35;;;;;;;7.63;2.80;;;;;;;10.10;86.32;101618.66;5090557;28;20413;-64
2023/04/10 06:09:00;;;;;;;7.68;1.58;;;;;;;10.07;86.06;101615.75;5010385;28;20037;-65
2023/04/10 06:11:26;;;;;;;5.75;2.47;;;;;;;10.23;85.69;101614.91;5005025;28;20617;-64
2023/04/10 06:13:57;;;;;;;9.73;2.95;;;;;;;10.27;85.07;101615.03;4993458;28;20069;-64
2023/04/10 06:16:29;;;;;;;4.82;2.67;;;;;;;10.36;84.61;101613.84;5009019;28;20120;-63
2023/04/10 06:18:55;;;;;;;1.83;1.73;;;;;;;10.66;83.47;101606.47;5009174;28;20125;-64
2023/04/10 06:21:20;;;;;;;9.40;3.35;;;;;;;10.70;81.94;101613.53;5003774;28;20071;-64
2023/04/10 06:23:46;;;;;;;6.82;2.78;;;;;;;10.62;82.57;101595.56;5010092;28;20026;-63
2023/04/10 06:26:11;;;;;;;3.67;1.95;;;;;;;10.69;82.23;101598.50;5023374;28;20041;-63
2023/04/10 06:28:37;;;;;;;4.40;2.80;;;;;;;10.70;81.46;101593.91;5006348;28;20029;-63
2023/04/10 06:31:05;;;;;;;6.55;2.63;;;;;;;10.71;82.10;101590.88;5005666;28;20064;-63
2023/04/10 06:33:35;;;;;;;;;;;;;;;10.96;80.99;101596.31;5003938;28;20029;-67
2023/04/10 06:36:02;;;;;;;6.65;3.03;;;;;;;10.82;80.81;101589.31;5005581;28;20340;-64
2023/04/10 06:38:32;;;;;;;5.28;2.83;;;;;;;10.75;80.14;101585.59;5005827;28;20056;-64
2023/04/10 06:40:58;;;;;;;5.22;3.20;;;;;;;11.07;79.67;101584.00;5008876;28;20052;-63
2023/04/10 06:43:24;;;;;;;7.20;2.20;;;;;;;11.04;79.96;101585.44;5015829;28;20021;-63
2023/04/10 06:45:49;;;;;;;5.35;2.55;;;;;;;11.33;78.31;101587.16;5040322;28;20044;-64
2023/04/10 06:48:15;;;;;;;10.82;3.38;;;;;;;11.34;78.56;101581.44;5088349;28;20055;-65
2023/04/10 06:50:40;;;;;;;5.00;1.98;;;;;;;11.58;77.46;101583.34;5087042;28;20050;-63
2023/04/10 06:53:06;;;;;;;4.47;3.28;;;;;;;11.63;76.13;101585.84;5087288;28;20499;-64
2023/04/10 06:55:31;;;;;;;3.50;1.75;;;;;;;11.42;76.28;101580.53;5090782;28;20028;-65
2023/04/10 06:57:57;;;;;;;5.18;2.13;;;;;;;11.35;76.80;101579.53;5086704;28;20410;-65
2023/04/10 07:00:22;;;;;;;7.30;2.97;;;;;;;11.60;75.73;101581.09;5086057;28;20036;-64
2023/04/10 07:02:48;;;;;;;4.30;2.58;;;;;;;11.66;74.85;101577.09;5087925;28;20016;-64
2023/04/10 07:05:14;;;;;;;5.40;2.55;;;;;;;11.41;76.76;101575.50;5087822;28;20122;-64
2023/04/10 07:07:40;;;;;;;6.35;3.47;;;;;;;11.72;75.60;101568.44;5075047;28;20043;-63
2023/04/10 07:10:06;;;;;;;5.55;2.75;;;;;;;11.80;76.10;101577.53;5077886;28;20039;-62
2023/04/10 07:12:32;;;;;;;2.70;1.85;;;;;;;11.59;75.16;101574.16;5081617;28;20109;-64
2023/04/10 07:14:57;;;;;;;6.40;2.58;;;;;;;11.70;75.54;101572.59;5073016;28;20070;-64
2023/04/10 07:17:23;;;;;;;2.95;2.38;;;;;;;11.73;74.72;101575.38;5068149;28;20047;-62
2023/04/10 07:19:49;;;;;;;3.30;2.08;;;;;;;12.12;74.34;101573.84;5074012;28;20125;-63
2023/04/10 07:22:17;;;;;;;6.75;2.70;;;;;;;12.27;72.94;101567.72;5078040;28;20498;-65
2023/04/10 07:24:43;;;;;;;7.05;2.85;;;;;;;12.18;73.22;101564.38;5082976;28;20502;-66
2023/04/10 07:27:11;;;;;;;5.65;2.40;;;;;;;12.62;71.68;101571.38;5079685;28;20105;-64
2023/04/10 07:29:37;;;;;;;3.00;1.67;;;;;;;12.97;71.12;101557.25;5085713;28;20036;-64
2023/04/10 07:32:05;;;;;;;3.17;2.05;;;;;;;13.11;71.53;101573.84;5088840;28;20032;-64
2023/04/10 07:34:31;;;;;;;4.75;1.95;;;;;;;13.20;69.97;101558.25;5067804;28;20039;-65
2023/04/10 07:36:56;;;;;;;5.70;2.33;;;;;;;13.46;69.24;101564.66;5086370;28;20039;-64
2023/04/10 07:39:22;;;;;;;4.70;2.22;;;;;;;13.75;66.73;101571.50;5083449;28;20040;-64
2023/04/10 07:41:47;;;;;;;4.22;2.40;;;;;;;13.78;66.82;101559.94;5088343;28;21286;-64
2023/04/10 07:44:13;;;;;;;3.42;1.33;;;;;;;13.38;66.86;101554.00;5082877;28;20024;-63
2023/04/10 07:46:39;;;;;;;6.25;2.03;;;;;;;13.43;66.91;101559.19;5081382;28;20042;-66
2023/04/10 07:49:05;;;;;;;3.03;2.00;;;;;;;13.75;66.53;101549.06;5084739;28;20039;-64
2023/04/10 07:51:30;;;;;;;4.88;1.40;;;;;;;13.79;64.90;101556.13;5083308;28;20412;-66
2023/04/10 07:53:56;;;;;;;3.40;1.60;;;;;;;13.99;64.74;101544.19;5088027;28;21584;-65
2023/04/10 07:56:22;;;;;;;4.55;1.77;;;;;;;14.18;64.42;101548.81;5082330;28;20035;-64
2023/04/10 07:58:48;;;;;;;3.92;2.17;;;;;;;14.21;64.88;101551.59;5086147;28;20032;-64
2023/04/10 08:01:14;;;;;;;6.47;2.53;;;;;;;14.68;64.45;101547.88;5077249;28;20035;-65
2023/04/10 08:03:42;;;;;;;5.88;2.70;;;;;;;15.06;62.74;101555.91;5081840;28;20746;-64
2023/04/10 08:06:08;;;;;;;3.72;1.52;;;;;;;15.22;60.68;101557.34;5076657;28;20060;-66
2023/04/10 08:08:35;;;;;;;3.63;1.85;;;;;;;15.38;60.93;101559.91;5086651;28;20081;-64
2023/04/10 08:11:01;;;;;;;2.90;1.65;;;;;;;15.71;58.18;101549.19;5083740;28;20122;-65
2023/04/10 08:13:27;;;;;;;5.18;2.05;;;;;;;15.59;57.52;101543.19;5083827;28;20028;-64
2023/04/10 08:15:52;;;;;;;5.75;2.17;;;;;;;15.73;56.23;101549.59;5084706;28;20069;-64
2023/04/10 08:18:18;;;;;;;3.65;2.13;;;;;;;15.14;56.63;101546.72;5086271;28;20030;-64
2023/04/10 08:20:43;;;;;;;2.85;1.55;;;;;;;15.29;58.63;101546.59;5086230;28;20039;-66
2023/04/10 08:23:08;;;;;;;5.13;1.40;;;;;;;15.52;58.11;101538.44;5080986;28;20032;-62
2023/04/10 08:25:34;;;;;;;3.53;1.98;;;;;;;15.72;58.33;101533.66;5075188;28;20551;-64
2023/04/10 08:27:59;;;;;;;3.50;1.58;;;;;;;16.01;57.55;101533.66;5086541;28;20084;-64
2023/04/10 08:30:25;;;;;;;5.72;1.92;;;;;;;16.11;55.76;101527.59;5087135;28;20039;-66
2023/04/10 08:32:50;;;;;;;5.53;2.15;;;;;;;16.14;55.84;101531.50;5079774;28;20550;-64
2023/04/10 08:35:16;;;;;;;5.00;1.90;;;;;;;16.34;55.99;101537.56;5084798;28;20050;-67
2023/04/10 08:37:41;;;;;;;2.38;1.38;;;;;;;16.56;54.75;101521.13;5079205;28;20024;-65
2023/04/10 08:40:07;;;;;;;4.53;1.90;;;;;;;16.21;54.95;101521.50;5086457;28;20088;-65
2023/04/10 08:42:33;;;;;;;2.63;1.75;;;;;;;16.86;54.67;101513.63;5079355;28;20041;-65
2023/04/10 08:44:58;;;;;;;2.80;1.40;;;;;;;17.13;54.57;101506.03;5085668;28;20035;-64
2023/04/10 08:47:27;;;;;;;4.18;1.58;;;;;;;17.11;52.80;101517.31;5078870;28;20714;-66
2023/04/10 08:49:55;;;;;;;3.55;1.77;;;;;;;16.99;53.00;101508.69;5071168;28;20024;-67
2023/04/10 08:52:25;;;;;;;4.75;2.17;;;;;;;17.35;52.58;101507.75;5074653;28;20123;-65
2023/04/10 08:54:53;;;;;;;2.10;1.30;;;;;;;17.10;52.79;101510.31;5064511;28;20396;-66
2023/04/10 08:57:20;;;;;;;4.72;1.95;;;;;;;16.74;52.90;101499.53;5081762;28;20390;-65
2023/04/10 08:59:52;;;;;;;3.50;1.58;;;;;;;17.21;54.32;101496.78;5084981;28;20062;-64
2023/04/10 09:02:19;;;;;;;4.30;1.92;;;;;;;17.38;52.85;101490.66;5086942;28;20150;-64
2023/04/10 09:04:50;;;;;;;2.35;1.50;;;;;;;17.81;52.72;101492.47;5077887;28;20055;-63
2023/04/10 09:07:15;;;;;;;;;;;;;;;18.04;50.94;101482.06;5083880;28;20031;-63
2023/04/10 09:09:41;;;;;;;5.78;2.10;;;;;;;18.27;50.74;101487.19;5091200;28;20293;-66
2023/04/10 09:12:07;;;;;;;4.70;1.92;;;;;;;18.34;49.96;101486.41;5091020;28;20027;-65
2023/04/10 09:14:34;;;;;;;4.82;1.98;;;;;;;18.42;49.09;101477.09;5064975;28;20083;-65
2023/04/10 09:17:19;;;;;;;5.15;1.73;;;;;;;18.44;48.76;101474.78;5090679;28;20023;-64
2023/04/10 09:19:53;;;;;;;5.22;1.95;;;;;;;18.63;47.99;101466.22;5089593;28;20020;-64
2023/04/10 09:22:30;;;;;;;2.90;1.45;;;;;;;18.69;47.95;101465.47;5086658;28;20028;-64
2023/04/10 09:24:55;;;;;;;3.72;1.70;;;;;;;18.82;47.25;101468.56;5089877;28;20509;-64
2023/04/10 09:27:33;;;;;;;4.88;1.65;;;;;;;19.38;46.77;101463.06;5090347;28;20127;-65
2023/04/10 09:30:00;;;;;;;4.70;1.60;;;;;;;19.29;46.37;101459.16;5077095;28;20032;-64
2023/04/10 09:32:37;;;;;;;3.80;1.63;;;;;;;19.07;46.95;101452.16;5085630;28;20093;-64
2023/04/10 09:35:03;;;;;;;1.85;1.33;;;;;;;18.57;46.28;101448.66;5089818;28;20024;-63
2023/04/10 09:37:33;;;;;;;4.20;2.25;;;;;;;19.06;46.43;101451.41;5068176;28;20032;-63
2023/04/10 09:39:59;;;;;;;3.13;1.50;;;;;;;19.38;45.69;101449.41;5068544;28;20048;-64
2023/04/10 09:42:29;;;;;;;2.50;2.00;;;;;;;19.63;44.71;101441.09;5078317;28;20028;-63
2023/04/10 09:44:55;;;;;;;2.17;1.33;;;;;;;19.47;45.53;101421.66;5076489;28;20480;-65
2023/04/10 09:47:21;;;;;;;3.10;1.52;;;;;;;19.59;44.61;101427.47;5088431;22;20019;-66
2023/04/10 09:49:48;;;;;;;3.22;1.73;;;;;;;19.58;44.36;101419.66;5100728;28;20043;-64
2023/04/10 09:52:21;;;;;;;3.35;1.80;;;;;;;19.77;43.67;101410.97;5106515;28;20020;-65
2023/04/10 09:54:46;;;;;;;2.70;1.52;;;;;;;20.10;43.19;101404.13;5107609;28;20023;-65
2023/04/10 09:57:19;;;;;;;1.50;1.10;;;;;;;20.10;43.57;101396.72;5102738;28;20031;-64
2023/04/10 09:59:55;;;;;;;7.07;2.45;;;;;;;20.24;43.56;101393.13;5091021;28;20039;-64
2023/04/10 10:02:23;;;;;;;3.08;1.25;;;;;;;20.20;43.82;101376.75;5084743;28;20126;-64
2023/04/10 10:04:51;;;;;;;2.58;1.52;;;;;;;20.28;42.97;101369.28;5090967;28;20036;-64
2023/04/10 10:07:18;;;;;;;2.58;1.33;;;;;;;21.02;41.82;101377.59;5082688;28;20706;-64
2023/04/10 10:09:45;;;;;;;3.90;1.60;;;;;;;20.43;41.89;101381.66;5094665;28;20487;-64
2023/04/10 10:12:14;;;;;;;2.90;1.30;;;;;;;20.48;41.62;101360.09;5098366;28;20127;-62
2023/04/10 10:15:03;;;;;;;4.75;1.25;;;;;;;20.69;42.37;101356.41;5080768;28;20089;-63
2023/04/10 10:17:33;;;;;;;4.60;1.70;;;;;;;20.68;41.25;101338.41;5078457;28;20039;-63
2023/04/10 10:20:06;;;;;;;2.90;1.50;;;;;;;20.72;40.10;101330.94;5098503;28;20032;-64
2023/04/10 10:22:31;;;;;;;2.50;1.20;;;;;;;20.08;41.42;101329.91;5103433;28;20071;-62
2023/04/10 10:24:59;;;;;;;4.90;1.55;;;;;;;20.47;40.22;101330.41;5095530;28;20043;-63
2023/04/10 10:27:25;;;;;;;2.70;1.60;;;;;;;20.41;40.08;101329.28;5100258;27;21070;-62
2023/04/10 10:29:53;;;;;;;1.50;1.02;;;;;;;20.95;40.95;101331.06;5100275;27;20043;-64
2023/04/10 10:32:20;;;;;;;3.97;1.63;;;;;;;21.19;40.33;101316.34;5104206;28;20072;-63
2023/04/10 10:34:46;;;;;;;3.08;1.30;;;;;;;21.24;39.84;101323.31;5100585;28;20462;-63
2023/04/10 10:37:13;;;;;;;3.15;1.70;;;;;;;21.43;39.96;101315.22;5108399;27;20024;-62
2023/04/10 10:39:53;;;;;;;3.38;1.52;;;;;;;21.19;39.08;101305.38;5099332;28;20115;-63
2023/04/10 10:42:26;;;;;;;2.40;1.52;;;;;;;21.27;39.78;101306.81;5099532;28;20508;-64
2023/04/10 10:45:12;;;;;;;2.15;1.38;;;;;;;21.18;39.24;101292.06;5098645;28;20063;-64
2023/04/10 10:47:43;;;;;;;2.33;1.35;;;;;;;21.26;38.43;101308.03;5098547;28;20031;-64
2023/04/10 10:50:09;;;;;;;1.98;1.33;;;;;;;21.23;39.39;101289.69;5102197;28;20478;-64
2023/04/10 10:52:41;;;;;;;3.13;1.15;;;;;;;21.71;37.44;101283.13;5104530;28;20051;-65
2023/04/10 10:55:30;;;;;;;0.88;0.88;;;;;;;21.79;37.32;101277.13;5104336;28;20028;-64
2023/04/10 10:58:10;;;;;;;2.90;1.20;;;;;;;20.81;37.56;101265.50;5079439;28;20115;-65
2023/04/10 11:00:50;;;;;;;3.25;1.50;;;;;;;20.43;38.22;101259.28;5097692;27;20069;-66
2023/04/10 11:03:16;;;;;;;1.55;0.65;;;;;;;20.76;39.15;101256.97;5089655;28;20941;-65
2023/04/10 11:05:53;;;;;;;2.55;1.42;;;;;;;21.14;38.35;101248.28;5094228;28;20039;-64
2023/04/10 11:08:34;;;;;;;2.03;1.17;;;;;;;21.33;38.83;101252.34;5094784;27;20074;-64
2023/04/10 11:11:22;;;;;;;2.13;1.00;;;;;;;21.84;37.40;101249.22;5092614;28;20043;-64
2023/04/10 11:13:51;;;;;;;1.92;1.10;;;;;;;21.85;37.10;101256.28;5088293;28;20118;-65
2023/04/10 11:16:18;;;;;;;4.47;1.60;;;;;;;21.44;36.79;101244.75;5104668;28;20557;-65
2023/04/10 11:18:43;;;;;;;2.80;1.42;;;;;;;21.17;36.89;101231.03;5092582;28;20582;-65
2023/04/10 11:21:10;;;;;;;3.28;1.05;;;;;;;21.26;37.74;101228.56;5078441;28;20036;-65
2023/04/10 11:23:59;;;;;;;2.75;1.35;;;;;;;21.61;36.76;101221.75;5090202;28;20036;-65
2023/04/10 11:26:43;;;;;;;1.05;0.88;;;;;;;21.74;36.83;101219.22;5051950;28;20039;-65
2023/04/10 11:29:12;;;;;;;2.55;0.93;;;;;;;21.77;36.48;101221.13;5083952;28;20027;-67
2023/04/10 11:31:38;;;;;;;2.05;1.00;;;;;;;22.23;35.89;101224.66;5081115;28;20028;-65
2023/04/10 11:34:09;;;;;;;1.88;0.75;;;;;;;21.27;36.73;101191.72;5104882;28;20020;-64
2023/04/10 11:36:40;;;;;;;0.88;0.80;;;;;;;21.26;36.70;101205.84;5108804;28;20180;-66
2023/04/10 11:39:08;;;;;;;1.95;0.80;;;;;;;21.88;36.09;101183.34;5072531;28;20042;-66
2023/04/10 11:41:35;;;;;;;1.67;1.10;;;;;;;22.40;35.42;101184.31;5085441;28;20423;-66
2023/04/10 11:44:03;;;;;;;2.85;1.25;;;;;;;22.61;33.99;101188.66;5103983;28;20032;-66
2023/04/10 11:46:29;;;;;;;2.28;0.98;;;;;;;21.75;35.00;101172.19;5106412;27;20495;-67
2023/04/10 11:49:06;;;;;;;1.20;0.90;;;;;;;21.79;34.97;101158.41;5108218;27;20038;-66